Time;durP1;ratioP1;P1;durP2;ratioP2;P2;SDS_P1;SDS_P2;PMS_P1;PMS_P2;Temp;Humidity;BMP_temperature;BMP_pressure;BME280_temperature;BME280_humidity;BME280_pressure;Samples;Min_cycle;Max_cycle;Signal;HPM_P1;HPM_P2
2021/12/19 00:01:52;;;;;;;;;;;9.00;99.90;;;;;;4952643;28;19910;-75
2021/12/19 00:04:24;;;;;;;;;;;9.10;99.90;;;;;;4952126;28;20286;-75
2021/12/19 00:09:33;;;;;;;;;;;9.10;99.90;;;;;;4952752;28;20057;-74
2021/12/19 00:11:59;;;;;;;;;;;9.00;99.90;;;;;;4951736;29;20005;-74
2021/12/19 00:14:25;;;;;;;;;;;9.10;99.90;;;;;;4935546;29;19968;-74
2021/12/19 00:16:51;;;;;;;;;;;9.10;99.90;;;;;;4951370;28;19918;-76
2021/12/19 00:19:17;;;;;;;;;;;9.20;99.90;;;;;;4952785;28;19910;-74
2021/12/19 00:21:44;;;;;;;;;;;9.20;99.90;;;;;;4952588;28;19911;-74
2021/12/19 00:24:10;;;;;;;;;;;9.30;99.90;;;;;;4951984;28;20277;-74
2021/12/19 00:26:36;;;;;;;;;;;9.20;99.90;;;;;;4935793;29;19911;-76
2021/12/19 00:29:03;;;;;;;;;;;9.20;99.90;;;;;;4952036;28;19989;-74
2021/12/19 00:31:29;;;;;;;;;;;9.10;99.90;;;;;;4952011;29;20509;-74
2021/12/19 00:33:54;;;;;;;;;;;9.00;99.90;;;;;;4951125;28;19918;-75
2021/12/19 00:36:20;;;;;;;;;;;9.10;99.90;;;;;;4951797;29;19922;-74
2021/12/19 00:38:46;;;;;;;;;;;9.00;99.90;;;;;;4952169;29;19910;-75
2021/12/19 00:41:11;;;;;;;;;;;9.00;99.90;;;;;;4952163;28;19910;-76
2021/12/19 00:43:53;;;;;;;;;;;9.00;99.90;;;;;;4952094;28;20308;-75
2021/12/19 00:46:19;;;;;;;;;;;9.10;99.90;;;;;;4950840;28;19910;-74
2021/12/19 00:48:49;;;;;;;;;;;8.80;99.90;;;;;;4951112;28;19926;-74
2021/12/19 00:51:16;;;;;;;;;;;8.80;99.90;;;;;;4952161;28;19961;-74
2021/12/19 00:53:42;;;;;;;;;;;8.90;99.90;;;;;;4952206;29;20257;-74
2021/12/19 00:56:08;;;;;;;;;;;8.80;99.90;;;;;;4951881;28;20054;-73
2021/12/19 00:58:34;;;;;;;;;;;8.80;99.90;;;;;;4951871;28;20312;-74
2021/12/19 01:01:00;;;;;;;;;;;8.80;99.90;;;;;;4951936;29;19914;-74
2021/12/19 01:03:25;;;;;;;;;;;8.90;99.90;;;;;;4951787;28;19918;-74
2021/12/19 01:05:52;;;;;;;;;;;8.90;99.90;;;;;;4952206;29;20363;-75
2021/12/19 01:08:18;;;;;;;;;;;8.90;99.90;;;;;;4951719;29;19911;-75
2021/12/19 01:10:44;;;;;;;;;;;9.00;99.90;;;;;;4950392;28;19917;-75
2021/12/19 01:13:13;;;;;;;;;;;8.90;99.90;;;;;;4951818;28;19943;-74
2021/12/19 01:15:39;;;;;;;;;;;9.00;99.90;;;;;;4950541;28;19915;-74
2021/12/19 01:18:05;;;;;;;;;;;9.00;99.90;;;;;;4937030;29;20536;-74
2021/12/19 01:20:32;;;;;;;;;;;9.00;99.90;;;;;;4955460;29;19914;-74
2021/12/19 01:22:57;;;;;;;;;;;9.00;99.90;;;;;;4955298;29;20453;-74
2021/12/19 01:25:23;;;;;;;;;;;9.00;99.90;;;;;;4955096;28;19918;-74
2021/12/19 01:27:49;;;;;;;;;;;9.00;99.90;;;;;;4955212;29;19911;-74
2021/12/19 01:30:16;;;;;;;;;;;9.00;99.90;;;;;;4955024;29;20057;-75
2021/12/19 01:32:42;;;;;;;;;;;8.90;99.90;;;;;;4955413;29;19993;-73
2021/12/19 01:35:08;;;;;;;;;;;8.90;99.90;;;;;;4954670;28;20448;-74
2021/12/19 01:37:34;;;;;;;;;;;9.00;99.90;;;;;;4954282;28;19910;-73
2021/12/19 01:40:00;;;;;;;;;;;9.10;99.90;;;;;;4937780;29;19977;-74
2021/12/19 01:42:29;;;;;;;;;;;9.10;99.90;;;;;;4954850;28;19929;-74
2021/12/19 01:44:54;;;;;;;;;;;9.10;99.90;;;;;;4955129;29;19918;-75
2021/12/19 01:47:21;;;;;;;;;;;9.10;99.90;;;;;;4955104;28;19914;-74
2021/12/19 01:49:46;;;;;;;;;;;9.10;99.90;;;;;;4954764;28;19920;-74
2021/12/19 01:52:12;;;;;;;;;;;9.10;99.90;;;;;;4954810;28;19910;-75
2021/12/19 01:54:37;;;;;;;;;;;9.20;99.90;;;;;;4953686;28;20009;-74
2021/12/19 01:57:03;;;;;;;;;;;9.10;99.90;;;;;;4954202;29;19914;-75
2021/12/19 01:59:28;;;;;;;;;;;9.00;99.90;;;;;;4954699;28;19921;-75
2021/12/19 02:01:54;;;;;;;;;;;9.00;99.90;;;;;;4954774;28;20388;-74
2021/12/19 02:04:21;;;;;;;;;;;9.00;99.90;;;;;;4954696;28;19988;-74
2021/12/19 02:06:47;;;;;;;;;;;8.90;99.90;;;;;;4954485;28;20089;-75
2021/12/19 02:09:13;;;;;;;;;;;9.00;99.90;;;;;;4954273;28;20360;-74
2021/12/19 02:11:39;;;;;;;;;;;8.90;99.90;;;;;;4954965;29;19903;-74
2021/12/19 02:14:05;;;;;;;;;;;9.00;99.90;;;;;;4954600;28;19911;-75
2021/12/19 02:16:31;;;;;;;;;;;9.10;99.90;;;;;;4954541;28;19918;-75
2021/12/19 02:18:56;;;;;;;;;;;9.00;99.90;;;;;;4954346;28;19910;-74
2021/12/19 02:21:22;;;;;;;;;;;9.00;99.90;;;;;;4954129;28;19997;-74
2021/12/19 02:23:48;;;;;;;;;;;9.10;99.90;;;;;;4954604;29;19902;-74
2021/12/19 02:26:14;;;;;;;;;;;9.00;99.90;;;;;;4953539;29;19911;-75
2021/12/19 02:28:40;;;;;;;;;;;8.90;99.90;;;;;;4954390;28;19910;-75
2021/12/19 02:31:05;;;;;;;;;;;9.00;99.90;;;;;;4937137;29;20388;-75
2021/12/19 02:33:34;;;;;;;;;;;9.00;99.90;;;;;;4937101;29;19910;-74
2021/12/19 02:49:27;;;;;;;;;;;8.90;99.90;;;;;;4992295;28;19921;-73
2021/12/19 02:51:53;;;;;;;;;;;8.90;99.90;;;;;;4975134;28;19910;-74
2021/12/19 02:54:19;;;;;;;;;;;8.90;99.90;;;;;;4992170;28;19906;-73
2021/12/19 02:56:44;;;;;;;;;;;9.00;99.90;;;;;;4974698;28;19910;-74
2021/12/19 02:59:10;;;;;;;;;;;9.00;99.90;;;;;;4992147;28;19925;-75
2021/12/19 03:01:36;;;;;;;;;;;8.90;99.90;;;;;;4992120;28;20449;-74
2021/12/19 03:04:01;;;;;;;;;;;8.90;99.90;;;;;;4992104;28;19910;-73
2021/12/19 03:06:27;;;;;;;;;;;9.00;99.90;;;;;;4992028;28;20283;-74
2021/12/19 03:08:57;;;;;;;;;;;9.00;99.90;;;;;;4992282;28;19929;-75
2021/12/19 03:19:29;;;;;;;;;;;9.00;99.90;;;;;;4991696;28;19925;-74
2021/12/19 03:21:54;;;;;;;;;;;9.10;99.90;;;;;;4991627;28;19920;-75
2021/12/19 03:24:19;;;;;;;;;;;9.00;99.90;;;;;;4991622;28;20338;-75
2021/12/19 03:26:45;;;;;;;;;;;9.00;99.90;;;;;;4992062;28;20353;-74
2021/12/19 03:29:11;;;;;;;;;;;9.10;99.90;;;;;;4991411;28;19913;-74
2021/12/19 03:31:36;;;;;;;;;;;9.10;99.90;;;;;;4974175;28;19913;-74
2021/12/19 03:34:02;;;;;;;;;;;9.00;99.90;;;;;;4974270;28;20375;-74
2021/12/19 03:36:28;;;;;;;;;;;9.00;99.90;;;;;;4974134;28;20279;-75
2021/12/19 03:38:58;;;;;;;;;;;9.00;99.90;;;;;;4991956;28;19914;-75
2021/12/19 03:41:33;;;;;;;;;;;9.00;99.90;;;;;;4974000;28;19910;-74
2021/12/19 03:43:58;;;;;;;;;;;9.10;99.90;;;;;;4974162;28;20352;-75
2021/12/19 03:46:24;;;;;;;;;;;9.10;99.90;;;;;;4973988;28;19949;-74
2021/12/19 03:48:49;;;;;;;;;;;9.00;99.90;;;;;;4991404;28;19909;-75
2021/12/19 03:51:15;;;;;;;;;;;9.10;99.90;;;;;;4974046;28;20004;-74
2021/12/19 03:53:40;;;;;;;;;;;9.10;99.90;;;;;;4991872;28;19940;-75
2021/12/19 03:56:06;;;;;;;;;;;9.10;99.90;;;;;;4973936;28;19978;-75
2021/12/19 03:58:31;;;;;;;;;;;9.20;99.90;;;;;;4974141;28;19909;-75
2021/12/19 04:01:00;;;;;;;;;;;9.20;99.90;;;;;;4973745;28;19910;-74
2021/12/19 04:03:25;;;;;;;;;;;9.10;99.90;;;;;;4973577;28;19918;-74
2021/12/19 04:05:52;;;;;;;;;;;9.00;99.90;;;;;;4970880;28;19921;-75
2021/12/19 04:08:18;;;;;;;;;;;9.10;99.90;;;;;;4971780;28;20001;-74
2021/12/19 04:10:46;;;;;;;;;;;9.10;99.90;;;;;;4970894;28;19953;-74
2021/12/19 04:13:12;;;;;;;;;;;9.10;99.90;;;;;;4971752;28;19972;-75
2021/12/19 04:15:37;;;;;;;;;;;9.10;99.90;;;;;;4971698;28;19922;-75
2021/12/19 04:18:03;;;;;;;;;;;9.10;99.90;;;;;;4971327;28;20362;-76
2021/12/19 04:20:28;;;;;;;;;;;9.10;99.90;;;;;;4971624;28;19910;-74
2021/12/19 04:22:54;;;;;;;;;;;9.10;99.90;;;;;;4971603;28;20276;-77
2021/12/19 04:25:19;;;;;;;;;;;9.20;99.90;;;;;;4971566;28;20365;-74
2021/12/19 04:27:45;;;;;;;;;;;9.10;99.90;;;;;;4971986;28;19991;-74
2021/12/19 04:30:13;;;;;;;;;;;9.20;99.90;;;;;;4971439;28;20601;-75
2021/12/19 04:32:43;;;;;;;;;;;9.20;99.90;;;;;;4970912;28;19902;-74
2021/12/19 04:35:10;;;;;;;;;;;9.20;99.90;;;;;;4971456;28;19917;-74
2021/12/19 04:38:07;;;;;;;;;;;9.00;99.90;;;;;;4971471;28;19956;-74
2021/12/19 04:40:31;;;;;;;;;;;9.00;99.90;;;;;;4971436;28;20005;-75
2021/12/19 04:51:20;;;;;;;;;;;9.10;99.90;;;;;;4971937;28;19917;-75
2021/12/19 04:54:19;;;;;;;;;;;9.10;99.90;;;;;;4973233;28;19925;-75
2021/12/19 04:57:09;;;;;;;;;;;9.20;99.90;;;;;;4975393;28;20009;-75
2021/12/19 04:59:50;;;;;;;;;;;9.10;99.90;;;;;;4974131;28;19914;-74
2021/12/19 05:05:25;;;;;;;;;;;9.10;99.90;;;;;;4978984;28;19928;-74
2021/12/19 05:16:02;;;;;;;;;;;9.00;99.90;;;;;;4994540;28;20012;-74
2021/12/19 05:18:31;;;;;;;;;;;9.00;99.90;;;;;;4994515;28;20001;-74
2021/12/19 05:21:01;;;;;;;;;;;8.90;99.90;;;;;;4994728;28;19905;-73
2021/12/19 05:25:55;;;;;;;;;;;8.90;99.90;;;;;;4994100;28;19913;-75
2021/12/19 05:28:21;;;;;;;;;;;8.90;99.90;;;;;;4976928;28;19925;-75
2021/12/19 05:30:46;;;;;;;;;;;9.00;99.90;;;;;;4993974;28;19910;-74
2021/12/19 05:33:12;;;;;;;;;;;9.00;99.90;;;;;;4994105;28;19971;-74
2021/12/19 05:36:01;;;;;;;;;;;8.90;99.90;;;;;;4995095;28;19909;-74
2021/12/19 05:46:40;;;;;;;;;;;8.90;99.90;;;;;;4993722;28;19964;-75
2021/12/19 05:49:06;;;;;;;;;;;9.10;99.90;;;;;;4993805;28;20402;-74
2021/12/19 05:51:33;;;;;;;;;;;9.00;99.90;;;;;;4993428;28;19993;-75
2021/12/19 05:53:58;;;;;;;;;;;8.90;99.90;;;;;;4993756;28;20343;-75
2021/12/19 05:56:24;;;;;;;;;;;9.00;99.90;;;;;;4993426;28;19913;-75
2021/12/19 05:58:49;;;;;;;;;;;9.10;99.90;;;;;;4993353;28;20009;-76
2021/12/19 06:01:15;;;;;;;;;;;9.10;99.90;;;;;;4993304;28;20347;-73
2021/12/19 06:03:40;;;;;;;;;;;9.00;99.90;;;;;;4993228;28;20237;-74
2021/12/19 06:06:07;;;;;;;;;;;9.00;99.90;;;;;;4993047;28;20487;-75
2021/12/19 06:08:32;;;;;;;;;;;9.10;99.90;;;;;;4993851;28;19909;-75
2021/12/19 06:10:58;;;;;;;;;;;9.10;99.90;;;;;;4993136;28;19909;-76
2021/12/19 06:13:24;;;;;;;;;;;9.10;99.90;;;;;;4975493;28;19913;-76
2021/12/19 06:15:53;;;;;;;;;;;9.00;99.90;;;;;;4993239;28;20358;-75
2021/12/19 06:18:24;;;;;;;;;;;8.90;99.90;;;;;;4975741;28;20339;-75
2021/12/19 06:20:55;;;;;;;;;;;9.00;99.90;;;;;;4976718;28;19963;-75
2021/12/19 06:23:21;;;;;;;;;;;8.90;99.90;;;;;;4975772;28;19914;-75
2021/12/19 06:25:46;;;;;;;;;;;8.90;99.90;;;;;;4992778;28;19910;-74
2021/12/19 06:28:13;;;;;;;;;;;8.90;99.90;;;;;;4975870;28;20371;-74
2021/12/19 06:30:38;;;;;;;;;;;8.90;99.90;;;;;;4975730;28;19909;-74
2021/12/19 06:33:04;;;;;;;;;;;8.90;99.90;;;;;;4993311;28;20390;-75
2021/12/19 06:35:30;;;;;;;;;;;8.90;99.90;;;;;;4992664;28;19910;-74
2021/12/19 06:37:56;;;;;;;;;;;9.00;99.90;;;;;;4992915;28;19918;-74
2021/12/19 06:40:22;;;;;;;;;;;8.90;99.90;;;;;;4992679;28;19936;-75
2021/12/19 06:42:48;;;;;;;;;;;8.90;99.90;;;;;;4992684;28;20287;-74
2021/12/19 06:45:14;;;;;;;;;;;9.00;99.90;;;;;;4992527;28;19909;-74
2021/12/19 06:47:39;;;;;;;;;;;8.90;99.90;;;;;;4992724;28;20186;-74
2021/12/19 06:50:06;;;;;;;;;;;9.00;99.90;;;;;;4992324;28;19913;-74
2021/12/19 06:52:31;;;;;;;;;;;9.00;99.90;;;;;;4974784;28;19968;-74
2021/12/19 06:54:57;;;;;;;;;;;9.10;99.90;;;;;;4975276;28;19989;-75
2021/12/19 06:57:22;;;;;;;;;;;9.10;99.90;;;;;;4992406;28;20012;-74
2021/12/19 06:59:48;;;;;;;;;;;9.10;99.90;;;;;;4992889;28;19914;-74
2021/12/19 07:02:15;;;;;;;;;;;9.10;99.90;;;;;;4975123;28;20353;-75
2021/12/19 07:04:41;;;;;;;;;;;9.10;99.90;;;;;;4991979;28;19924;-75
2021/12/19 07:07:07;;;;;;;;;;;9.10;99.90;;;;;;4975015;28;19922;-74
2021/12/19 07:09:32;;;;;;;;;;;9.10;99.90;;;;;;4974730;28;19910;-75
2021/12/19 07:11:58;;;;;;;;;;;9.10;99.90;;;;;;4975097;28;20332;-74
2021/12/19 07:14:23;;;;;;;;;;;9.00;99.90;;;;;;4980764;28;19980;-74
2021/12/19 07:16:49;;;;;;;;;;;9.10;99.90;;;;;;4991519;28;19920;-75
2021/12/19 07:19:15;;;;;;;;;;;9.10;99.90;;;;;;4974258;28;20425;-74
2021/12/19 07:21:40;;;;;;;;;;;9.00;99.90;;;;;;4974469;28;19913;-75
2021/12/19 07:24:06;;;;;;;;;;;9.00;99.90;;;;;;4974975;28;20300;-74
2021/12/19 07:26:31;;;;;;;;;;;9.00;99.90;;;;;;4992186;28;19917;-74
2021/12/19 07:28:58;;;;;;;;;;;8.90;99.90;;;;;;4974610;28;19993;-76
2021/12/19 07:31:23;;;;;;;;;;;9.00;99.90;;;;;;4992000;28;20096;-75
2021/12/19 07:33:49;;;;;;;;;;;9.00;99.90;;;;;;4974237;28;20514;-75
2021/12/19 07:36:17;;;;;;;;;;;9.00;99.90;;;;;;4991466;28;20318;-75
2021/12/19 07:38:54;;;;;;;;;;;9.00;99.90;;;;;;4991790;28;20203;-75
2021/12/19 07:41:19;;;;;;;;;;;9.10;99.90;;;;;;4974044;28;19916;-75
2021/12/19 07:43:45;;;;;;;;;;;9.00;99.90;;;;;;4974019;28;20409;-75
2021/12/19 07:46:10;;;;;;;;;;;9.00;99.90;;;;;;4991250;28;19992;-75
2021/12/19 07:48:36;;;;;;;;;;;9.00;99.90;;;;;;4991213;28;19956;-74
2021/12/19 07:51:01;;;;;;;;;;;9.00;99.90;;;;;;4991523;28;19910;-74
2021/12/19 07:53:27;;;;;;;;;;;8.90;99.90;;;;;;4991600;28;20387;-74
2021/12/19 07:55:52;;;;;;;;;;;8.90;99.90;;;;;;4973838;28;19913;-75
2021/12/19 07:58:18;;;;;;;;;;;8.80;99.90;;;;;;4973916;28;19968;-74
2021/12/19 08:00:43;;;;;;;;;;;8.90;99.90;;;;;;4990968;28;20274;-75
2021/12/19 08:03:09;;;;;;;;;;;8.90;99.90;;;;;;4990918;28;20419;-75
2021/12/19 08:05:34;;;;;;;;;;;8.90;99.90;;;;;;4991517;28;19972;-74
2021/12/19 08:08:03;;;;;;;;;;;8.80;99.90;;;;;;4991179;28;19909;-73
2021/12/19 08:12:57;;;;;;;;;;;8.90;99.90;;;;;;4991331;28;20138;-73
2021/12/19 08:15:22;;;;;;;;;;;8.80;99.90;;;;;;4991073;28;20346;-74
2021/12/19 08:17:48;;;;;;;;;;;8.80;99.90;;;;;;4974002;28;19956;-74
2021/12/19 08:20:15;;;;;;;;;;;8.90;99.90;;;;;;4973711;28;19952;-74
2021/12/19 08:22:41;;;;;;;;;;;8.90;99.90;;;;;;4991046;28;20339;-74
2021/12/19 08:25:07;;;;;;;;;;;8.90;99.90;;;;;;4973855;28;19921;-75
2021/12/19 08:27:34;;;;;;;;;;;8.90;99.90;;;;;;4990903;28;20427;-75
2021/12/19 08:30:00;;;;;;;;;;;9.00;99.90;;;;;;4974019;28;20315;-75
2021/12/19 08:32:25;;;;;;;;;;;9.00;99.90;;;;;;4990775;28;19913;-74
2021/12/19 08:34:51;;;;;;;;;;;8.90;99.90;;;;;;4990387;28;20363;-73
2021/12/19 08:37:16;;;;;;;;;;;8.80;99.90;;;;;;4973119;28;19913;-73
2021/12/19 08:39:42;;;;;;;;;;;8.80;99.90;;;;;;4990646;28;19917;-75
2021/12/19 08:42:09;;;;;;;;;;;8.90;99.90;;;;;;4990429;28;19961;-74
2021/12/19 08:44:35;;;;;;;;;;;8.90;99.90;;;;;;4990983;28;19905;-74
2021/12/19 08:47:00;;;;;;;;;;;8.90;99.90;;;;;;4973180;28;20016;-75
2021/12/19 08:49:26;;;;;;;;;;;8.90;99.90;;;;;;4990952;28;19916;-73
2021/12/19 08:51:51;;;;;;;;;;;8.80;99.90;;;;;;4973333;28;19976;-74
2021/12/19 08:54:17;;;;;;;;;;;8.80;99.90;;;;;;4973188;28;20004;-75
2021/12/19 08:56:42;;;;;;;;;;;8.80;99.90;;;;;;4973668;28;19914;-74
2021/12/19 08:59:09;;;;;;;;;;;8.90;99.90;;;;;;4990600;28;19948;-74
2021/12/19 09:01:36;;;;;;;;;;;8.90;99.90;;;;;;4990379;28;20004;-75
2021/12/19 09:04:01;;;;;;;;;;;8.90;99.90;;;;;;4990471;28;20366;-74
2021/12/19 09:06:27;;;;;;;;;;;9.00;99.90;;;;;;4969586;28;20000;-74
2021/12/19 09:08:53;;;;;;;;;;;8.90;99.90;;;;;;4971470;28;19988;-74
2021/12/19 09:11:18;;;;;;;;;;;8.90;99.90;;;;;;4971125;28;19953;-75
2021/12/19 09:13:44;;;;;;;;;;;9.00;99.90;;;;;;4969976;28;19988;-75
2021/12/19 09:16:09;;;;;;;;;;;8.90;99.90;;;;;;4969548;28;20260;-74
2021/12/19 09:18:35;;;;;;;;;;;9.00;99.90;;;;;;4970987;28;19918;-74
2021/12/19 09:21:00;;;;;;;;;;;8.90;99.90;;;;;;4971411;28;20573;-75
2021/12/19 09:23:27;;;;;;;;;;;8.80;99.90;;;;;;4970982;28;20283;-74
2021/12/19 09:25:52;;;;;;;;;;;8.90;99.90;;;;;;4970785;28;19910;-74
2021/12/19 09:28:18;;;;;;;;;;;8.90;99.90;;;;;;4970929;28;19910;-74
2021/12/19 09:30:44;;;;;;;;;;;8.90;99.90;;;;;;4969603;28;20061;-74
2021/12/19 09:33:10;;;;;;;;;;;8.90;99.90;;;;;;4970579;28;19910;-74
2021/12/19 09:35:36;;;;;;;;;;;8.90;99.90;;;;;;4971177;28;20430;-74
2021/12/19 09:38:02;;;;;;;;;;;8.80;99.90;;;;;;4969886;28;19917;-75
2021/12/19 09:40:36;;;;;;;;;;;8.80;99.90;;;;;;4974150;28;19950;-76
2021/12/19 09:43:04;;;;;;;;;;;8.90;99.90;;;;;;4974379;28;19969;-74
2021/12/19 09:45:31;;;;;;;;;;;8.90;99.90;;;;;;4974167;28;20109;-74
2021/12/19 09:47:57;;;;;;;;;;;9.00;99.90;;;;;;4973309;28;20326;-75
2021/12/19 09:50:23;;;;;;;;;;;9.00;99.90;;;;;;4974157;28;19976;-74
2021/12/19 09:52:51;;;;;;;;;;;9.10;99.90;;;;;;4973963;28;19918;-75
2021/12/19 09:55:21;;;;;;;;;;;9.10;99.90;;;;;;4974023;28;20264;-74
2021/12/19 09:57:47;;;;;;;;;;;9.00;99.90;;;;;;4972839;28;19914;-74
2021/12/19 10:00:13;;;;;;;;;;;9.10;99.90;;;;;;4972757;28;19993;-75
2021/12/19 10:02:38;;;;;;;;;;;9.00;99.90;;;;;;4974279;28;19949;-75
2021/12/19 10:05:14;;;;;;;;;;;9.10;99.90;;;;;;4978748;28;19930;-75
2021/12/19 10:07:45;;;;;;;;;;;9.00;99.90;;;;;;4992980;28;19941;-75
2021/12/19 10:10:13;;;;;;;;;;;9.10;99.90;;;;;;4993408;28;19914;-74
2021/12/19 10:15:16;;;;;;;;;;;9.10;99.90;;;;;;4993438;28;19971;-74
2021/12/19 10:17:42;;;;;;;;;;;9.00;99.90;;;;;;4976123;28;19916;-75
2021/12/19 10:20:12;;;;;;;;;;;9.00;99.90;;;;;;4993111;28;19954;-74
2021/12/19 10:22:39;;;;;;;;;;;8.90;99.90;;;;;;4992869;28;19916;-74
2021/12/19 10:25:07;;;;;;;;;;;9.00;99.90;;;;;;4993010;28;19910;-75
2021/12/19 10:27:40;;;;;;;;;;;9.00;99.90;;;;;;4975411;28;19925;-75
2021/12/19 10:30:26;;;;;;;;;;;9.10;99.90;;;;;;4992640;28;19964;-75
2021/12/19 10:33:01;;;;;;;;;;;9.10;99.90;;;;;;4992423;28;19906;-75
2021/12/19 10:35:28;;;;;;;;;;;9.10;99.90;;;;;;4992868;28;19917;-75
2021/12/19 10:37:54;;;;;;;;;;;9.00;99.90;;;;;;4992351;28;19916;-74
2021/12/19 10:40:20;;;;;;;;;;;8.80;99.90;;;;;;4992420;28;19910;-73
2021/12/19 10:43:17;;;;;;;;;;;8.90;99.90;;;;;;4992414;28;19917;-74
2021/12/19 10:45:44;;;;;;;;;;;8.80;99.90;;;;;;4973976;28;19913;-74
2021/12/19 10:48:30;;;;;;;;;;;8.80;99.90;;;;;;4992175;28;19920;-75
2021/12/19 10:50:55;;;;;;;;;;;9.00;99.90;;;;;;4991674;28;20302;-75
2021/12/19 10:53:25;;;;;;;;;;;8.90;99.90;;;;;;4992304;28;19924;-74
2021/12/19 10:55:51;;;;;;;;;;;8.90;99.90;;;;;;4992064;28;20411;-74
2021/12/19 10:58:18;;;;;;;;;;;8.80;99.90;;;;;;4992255;28;19997;-73
2021/12/19 11:00:53;;;;;;;;;;;8.80;99.90;;;;;;4991899;28;19945;-74
2021/12/19 11:03:32;;;;;;;;;;;8.70;99.90;;;;;;4991917;28;19916;-74
2021/12/19 11:05:58;;;;;;;;;;;8.80;99.90;;;;;;4992329;28;19983;-74
2021/12/19 11:08:28;;;;;;;;;;;8.80;99.90;;;;;;4991748;28;20004;-73
2021/12/19 11:10:54;;;;;;;;;;;8.80;99.90;;;;;;4992122;28;20331;-73
2021/12/19 11:13:21;;;;;;;;;;;8.80;99.90;;;;;;4991896;28;19910;-74
2021/12/19 11:15:49;;;;;;;;;;;8.80;99.90;;;;;;4974459;28;19921;-74
2021/12/19 11:18:14;;;;;;;;;;;8.80;99.90;;;;;;4991757;28;19910;-74
2021/12/19 11:20:40;;;;;;;;;;;8.80;99.90;;;;;;4992035;28;20368;-74
2021/12/19 11:23:05;;;;;;;;;;;8.80;99.90;;;;;;4991827;28;19917;-74
2021/12/19 11:25:31;;;;;;;;;;;8.80;99.90;;;;;;4991717;28;19910;-75
2021/12/19 11:27:57;;;;;;;;;;;8.90;99.90;;;;;;4974166;28;19941;-75
2021/12/19 11:30:24;;;;;;;;;;;8.80;99.90;;;;;;4991434;28;19945;-74
2021/12/19 11:33:08;;;;;;;;;;;8.90;99.90;;;;;;4991796;28;19917;-74
2021/12/19 11:35:36;;;;;;;;;;;8.90;99.90;;;;;;4974104;28;19910;-75
2021/12/19 11:38:04;;;;;;;;;;;9.00;99.90;;;;;;4991121;28;19913;-75
2021/12/19 11:40:36;;;;;;;;;;;8.90;99.90;;;;;;4974253;28;20260;-74
2021/12/19 11:43:03;;;;;;;;;;;8.90;99.90;;;;;;4991036;28;19913;-74
2021/12/19 11:48:04;;;;;;;;;;;9.00;99.90;;;;;;4991840;28;19906;-75
2021/12/19 11:50:34;;;;;;;;;;;9.00;99.90;;;;;;4991029;28;19910;-74
2021/12/19 11:53:09;;;;;;;;;;;9.00;99.90;;;;;;4991415;28;19925;-75
2021/12/19 11:55:34;;;;;;;;;;;9.00;99.90;;;;;;4991239;28;20434;-74
2021/12/19 11:58:11;;;;;;;;;;;9.00;99.90;;;;;;4991034;28;19931;-74
2021/12/19 12:00:50;;;;;;;;;;;8.90;99.90;;;;;;4991021;28;20016;-75
2021/12/19 12:03:15;;;;;;;;;;;9.00;99.90;;;;;;4973515;28;19964;-74
2021/12/19 12:05:53;;;;;;;;;;;9.10;99.90;;;;;;4990943;28;20331;-74
2021/12/19 12:08:22;;;;;;;;;;;9.00;99.90;;;;;;4990823;28;19965;-75
2021/12/19 12:10:51;;;;;;;;;;;9.00;99.90;;;;;;4990840;28;19914;-74
2021/12/19 12:13:24;;;;;;;;;;;9.10;99.90;;;;;;4991057;28;20072;-74
2021/12/19 12:15:51;;;;;;;;;;;9.00;99.90;;;;;;4991003;28;19949;-75
2021/12/19 12:18:30;;;;;;;;;;;9.10;99.90;;;;;;4973821;28;19909;-75
2021/12/19 12:20:56;;;;;;;;;;;9.10;99.90;;;;;;4991238;28;20005;-75
2021/12/19 12:23:25;;;;;;;;;;;9.10;99.90;;;;;;4990608;28;19996;-75
2021/12/19 12:25:51;;;;;;;;;;;9.10;99.90;;;;;;4990925;28;20307;-75
2021/12/19 12:28:17;;;;;;;;;;;9.10;99.90;;;;;;4973591;28;19910;-75
2021/12/19 12:30:47;;;;;;;;;;;9.20;99.90;;;;;;4990859;28;19909;-75
2021/12/19 12:33:16;;;;;;;;;;;9.20;99.90;;;;;;4990744;28;20362;-75
2021/12/19 12:35:43;;;;;;;;;;;9.10;99.90;;;;;;4991366;28;19906;-75
2021/12/19 12:38:09;;;;;;;;;;;9.20;99.90;;;;;;4990474;28;20001;-74
2021/12/19 12:40:46;;;;;;;;;;;9.10;99.90;;;;;;4990619;28;19910;-74
2021/12/19 12:43:16;;;;;;;;;;;9.10;99.90;;;;;;4990564;28;19916;-75
2021/12/19 12:45:47;;;;;;;;;;;9.10;99.90;;;;;;4990805;28;20196;-75
2021/12/19 12:48:24;;;;;;;;;;;9.00;99.90;;;;;;4973172;28;20005;-75
2021/12/19 12:50:50;;;;;;;;;;;9.10;99.90;;;;;;4991254;28;19941;-75
2021/12/19 12:53:26;;;;;;;;;;;9.00;99.90;;;;;;4972998;28;19968;-75
2021/12/19 12:56:08;;;;;;;;;;;9.10;99.90;;;;;;4973223;28;19914;-74
2021/12/19 12:58:35;;;;;;;;;;;9.10;99.90;;;;;;4990076;28;19920;-74
2021/12/19 13:01:15;;;;;;;;;;;9.20;99.90;;;;;;4990377;28;20005;-74
2021/12/19 13:03:58;;;;;;;;;;;9.10;99.90;;;;;;4990535;28;19913;-75
2021/12/19 13:06:35;;;;;;;;;;;9.20;99.90;;;;;;4969359;28;19918;-74
2021/12/19 13:09:12;;;;;;;;;;;9.20;99.90;;;;;;4970153;28;19993;-74
2021/12/19 13:11:37;;;;;;;;;;;9.20;99.90;;;;;;4970906;28;20257;-75
2021/12/19 13:14:15;;;;;;;;;;;9.20;99.90;;;;;;4972575;28;19921;-74
2021/12/19 13:16:44;;;;;;;;;;;9.10;99.90;;;;;;4974435;28;19925;-74
2021/12/19 13:19:10;;;;;;;;;;;9.10;99.90;;;;;;4974495;28;20283;-74
2021/12/19 13:21:54;;;;;;;;;;;9.10;99.90;;;;;;4974666;28;20434;-75
2021/12/19 13:24:21;;;;;;;;;;;9.10;99.90;;;;;;4974424;28;19914;-75
2021/12/19 13:26:47;;;;;;;;;;;9.10;99.90;;;;;;4973920;28;19913;-75
2021/12/19 13:29:17;;;;;;;;;;;9.10;99.90;;;;;;4973145;28;19910;-75
2021/12/19 13:31:42;;;;;;;;;;;9.20;99.90;;;;;;4974123;28;19933;-74
2021/12/19 13:34:12;;;;;;;;;;;9.10;99.90;;;;;;4974141;28;20285;-74
2021/12/19 13:36:38;;;;;;;;;;;9.20;99.90;;;;;;4974043;28;20001;-74
2021/12/19 13:39:03;;;;;;;;;;;9.10;99.90;;;;;;4973276;28;20340;-74
2021/12/19 13:41:29;;;;;;;;;;;9.10;99.90;;;;;;4973936;28;19914;-74
2021/12/19 13:43:54;;;;;;;;;;;9.00;99.90;;;;;;4973970;28;19949;-75
2021/12/19 13:46:20;;;;;;;;;;;8.90;99.90;;;;;;4974297;28;20225;-74
2021/12/19 13:48:54;;;;;;;;;;;8.90;99.90;;;;;;4974062;28;20016;-74
2021/12/19 13:51:22;;;;;;;;;;;8.90;99.90;;;;;;4974118;28;19985;-74
2021/12/19 13:53:53;;;;;;;;;;;9.00;99.90;;;;;;4974401;28;19941;-74
2021/12/19 13:56:18;;;;;;;;;;;9.00;99.90;;;;;;4974254;28;19928;-74
2021/12/19 13:59:03;;;;;;;;;;;8.90;99.90;;;;;;4974040;28;20000;-74
2021/12/19 14:01:38;;;;;;;;;;;8.90;99.90;;;;;;4972678;28;20337;-73
2021/12/19 14:04:17;;;;;;;;;;;9.00;99.90;;;;;;4973890;28;19921;-74
2021/12/19 14:06:44;;;;;;;;;;;9.10;99.90;;;;;;4972813;28;19922;-74
2021/12/19 14:09:12;;;;;;;;;;;8.90;99.90;;;;;;4972824;28;19964;-75
2021/12/19 14:11:43;;;;;;;;;;;9.00;99.90;;;;;;4972988;28;19902;-75
2021/12/19 14:14:29;;;;;;;;;;;9.00;99.90;;;;;;4973462;28;19941;-74
2021/12/19 14:17:03;;;;;;;;;;;8.90;99.90;;;;;;4973598;28;19997;-75
2021/12/19 14:19:28;;;;;;;;;;;9.00;99.90;;;;;;4973694;28;20236;-74
2021/12/19 14:22:09;;;;;;;;;;;9.00;99.90;;;;;;4973436;28;19921;-73
2021/12/19 14:24:41;;;;;;;;;;;8.90;99.90;;;;;;4972884;28;19914;-74
2021/12/19 14:27:18;;;;;;;;;;;9.00;99.90;;;;;;4973671;28;19964;-75
2021/12/19 14:29:57;;;;;;;;;;;9.00;99.90;;;;;;4973596;28;19906;-74
2021/12/19 14:32:24;;;;;;;;;;;9.00;99.90;;;;;;4973289;28;19910;-74
2021/12/19 14:34:53;;;;;;;;;;;9.10;99.90;;;;;;4973244;28;19910;-75
2021/12/19 14:37:26;;;;;;;;;;;9.10;99.90;;;;;;4973215;28;20336;-74
2021/12/19 14:39:57;;;;;;;;;;;9.10;99.90;;;;;;4973016;28;19947;-75
2021/12/19 14:42:27;;;;;;;;;;;9.20;99.90;;;;;;4972870;28;19906;-75
2021/12/19 14:44:54;;;;;;;;;;;9.10;99.90;;;;;;4973205;28;20354;-76
2021/12/19 14:47:33;;;;;;;;;;;9.20;99.90;;;;;;4972847;28;20328;-74
2021/12/19 14:50:07;;;;;;;;;;;9.20;99.90;;;;;;4971839;28;19956;-74
2021/12/19 14:52:33;;;;;;;;;;;9.10;99.90;;;;;;4971683;28;20388;-75
2021/12/19 14:55:09;;;;;;;;;;;9.10;99.90;;;;;;4972615;28;19917;-75
2021/12/19 14:57:34;;;;;;;;;;;9.10;99.90;;;;;;4972989;28;20227;-75
2021/12/19 15:00:00;;;;;;;;;;;9.20;99.90;;;;;;4972017;28;20005;-75
2021/12/19 15:02:25;;;;;;;;;;;9.20;99.90;;;;;;4972502;28;20267;-75
2021/12/19 15:04:51;;;;;;;;;;;9.10;99.90;;;;;;4974018;28;19956;-75
2021/12/19 15:07:22;;;;;;;;;;;9.10;99.90;;;;;;4992012;28;20247;-76
2021/12/19 15:09:47;;;;;;;;;;;9.20;99.90;;;;;;4974509;28;19921;-75
2021/12/19 15:12:13;;;;;;;;;;;9.10;99.90;;;;;;4991532;28;19905;-75
2021/12/19 15:14:38;;;;;;;;;;;9.20;99.90;;;;;;4975070;28;19960;-75
2021/12/19 15:17:04;;;;;;;;;;;9.20;99.90;;;;;;4974465;28;20411;-74
2021/12/19 15:19:29;;;;;;;;;;;9.20;99.90;;;;;;4991629;28;20343;-75
2021/12/19 15:21:55;;;;;;;;;;;9.20;99.90;;;;;;4991885;28;19968;-75
2021/12/19 15:24:20;;;;;;;;;;;9.30;99.90;;;;;;4991601;28;19910;-75
2021/12/19 15:26:46;;;;;;;;;;;9.30;99.90;;;;;;4975206;28;19925;-76
2021/12/19 15:29:11;;;;;;;;;;;9.20;99.90;;;;;;4991378;28;19909;-75
2021/12/19 15:31:38;;;;;;;;;;;9.20;99.90;;;;;;4991566;28;19982;-75
2021/12/19 15:34:03;;;;;;;;;;;9.20;99.90;;;;;;4991513;28;19992;-75
2021/12/19 15:36:29;;;;;;;;;;;9.20;99.90;;;;;;4973281;28;20336;-74
2021/12/19 15:38:55;;;;;;;;;;;9.20;99.90;;;;;;4974478;28;19957;-75